Time;durP1;ratioP1;P1;durP2;ratioP2;P2;SDS_P1;SDS_P2;PMS_P1;PMS_P2;Temp;Humidity;BMP_temperature;BMP_pressure;BME280_temperature;BME280_humidity;BME280_pressure;Samples;Min_cycle;Max_cycle;Signal;HPM_P1;HPM_P2
2024/04/10 00:00:12;;;;;;;14.10;2.63;;;;;;;;;;5464866;26;20548;-73
2024/04/10 00:02:42;;;;;;;14.80;2.55;;;;;;;;;;5478950;26;20660;-72
2024/04/10 00:05:09;;;;;;;14.02;3.05;;;;;;;;;;5468000;26;19998;-73
2024/04/10 00:07:36;;;;;;;9.82;2.67;;;;;;;;;;5472245;26;20024;-73
2024/04/10 00:10:03;;;;;;;15.75;2.67;;;;;;;;;;5468490;26;19998;-73
2024/04/10 00:12:30;;;;;;;12.07;2.60;;;;;;;;;;5415386;26;20026;-73
2024/04/10 00:14:56;;;;;;;11.27;2.63;;;;;;;;;;5478250;26;20009;-73
2024/04/10 00:17:26;;;;;;;13.55;2.67;;;;;;;;;;5465735;26;20017;-73
2024/04/10 00:19:53;;;;;;;15.93;2.67;;;;;;;;;;5459591;26;20033;-73
2024/04/10 00:22:20;;;;;;;11.13;2.50;;;;;;;;;;5430881;26;20061;-72
2024/04/10 00:24:46;;;;;;;13.32;2.45;;;;;;;;;;5405620;26;19995;-73
2024/04/10 00:27:15;;;;;;;12.65;1.92;;;;;;;;;;5486041;26;20013;-72
2024/04/10 00:29:41;;;;;;;14.30;2.58;;;;;;;;;;5438361;26;20478;-72
2024/04/10 00:32:08;;;;;;;9.23;2.30;;;;;;;;;;5477352;26;20014;-72
2024/04/10 00:34:35;;;;;;;13.88;2.78;;;;;;;;;;5466963;26;19994;-72
2024/04/10 00:37:02;;;;;;;9.23;2.10;;;;;;;;;;5469303;26;20469;-71
2024/04/10 00:39:28;;;;;;;15.32;2.25;;;;;;;;;;5443964;26;20046;-72
2024/04/10 00:41:55;;;;;;;13.32;2.40;;;;;;;;;;5446699;26;20018;-72
2024/04/10 00:44:21;;;;;;;11.43;2.38;;;;;;;;;;5463326;26;20002;-72
2024/04/10 00:46:48;;;;;;;8.35;2.08;;;;;;;;;;5466447;26;20050;-71
2024/04/10 00:49:15;;;;;;;14.70;2.80;;;;;;;;;;5461385;26;20006;-71
2024/04/10 00:51:42;;;;;;;12.27;3.22;;;;;;;;;;5437446;26;20010;-71
2024/04/10 00:54:09;;;;;;;19.92;3.45;;;;;;;;;;5467956;26;20006;-71
2024/04/10 00:56:35;;;;;;;13.77;2.92;;;;;;;;;;5477741;26;19998;-71
2024/04/10 00:59:02;;;;;;;12.65;2.55;;;;;;;;;;5437141;26;20013;-72
2024/04/10 01:01:29;;;;;;;11.27;1.83;;;;;;;;;;5440321;26;20017;-72
2024/04/10 01:03:55;;;;;;;17.70;2.97;;;;;;;;;;5472560;26;20013;-71
2024/04/10 01:06:29;;;;;;;11.57;2.42;;;;;;;;;;5463883;26;20006;-72
2024/04/10 01:08:55;;;;;;;13.75;2.90;;;;;;;;;;5475777;26;20432;-71
2024/04/10 01:11:22;;;;;;;8.55;2.20;;;;;;;;;;5429773;26;20009;-72
2024/04/10 01:13:49;;;;;;;8.48;2.22;;;;;;;;;;5474444;26;20074;-72
2024/04/10 01:16:16;;;;;;;14.20;2.45;;;;;;;;;;5468900;26;20593;-72
2024/04/10 01:18:43;;;;;;;13.40;2.47;;;;;;;;;;5472002;26;20033;-71
2024/04/10 01:21:09;;;;;;;11.48;2.97;;;;;;;;;;5468118;26;20038;-72
2024/04/10 01:23:36;;;;;;;13.77;2.42;;;;;;;;;;5435804;26;20002;-71
2024/04/10 01:26:02;;;;;;;16.25;2.88;;;;;;;;;;5477415;26;20006;-72
2024/04/10 01:28:29;;;;;;;13.63;2.60;;;;;;;;;;5467557;26;20013;-72
2024/04/10 01:30:55;;;;;;;13.68;2.65;;;;;;;;;;5475885;26;20006;-72
2024/04/10 01:33:24;;;;;;;13.30;2.97;;;;;;;;;;5468460;26;20330;-72
2024/04/10 01:35:50;;;;;;;;;;;;;;;;;;5427630;26;20063;-72
2024/04/10 01:38:17;;;;;;;18.33;2.47;;;;;;;;;;5465644;26;20385;-72
2024/04/10 01:40:44;;;;;;;11.63;2.35;;;;;;;;;;5464833;26;19998;-72
2024/04/10 01:43:10;;;;;;;8.25;2.60;;;;;;;;;;5476347;26;20013;-71
2024/04/10 01:45:38;;;;;;;10.57;2.40;;;;;;;;;;5462297;26;20079;-71
2024/04/10 01:48:04;;;;;;;14.25;2.40;;;;;;;;;;5449694;26;20002;-71
2024/04/10 01:51:47;;;;;;;9.68;2.38;;;;;;;;;;5425158;26;20310;-70
2024/04/10 01:54:14;;;;;;;18.15;3.80;;;;;;;;;;5419914;26;20137;-70
2024/04/10 01:56:40;;;;;;;11.27;2.90;;;;;;;;;;5411394;26;20023;-69
2024/04/10 01:59:07;;;;;;;10.55;3.20;;;;;;;;;;5379823;26;20004;-70
2024/04/10 02:01:34;;;;;;;13.38;3.38;;;;;;;;;;5408397;26;19999;-69
2024/04/10 02:04:01;;;;;;;10.02;3.13;;;;;;;;;;5388281;26;20008;-70
2024/04/10 02:06:28;;;;;;;10.70;2.65;;;;;;;;;;5406866;26;20000;-69
2024/04/10 02:08:54;;;;;;;8.88;2.80;;;;;;;;;;5401039;26;20574;-69
2024/04/10 02:11:26;;;;;;;6.57;2.50;;;;;;;;;;5400263;26;20336;-69
2024/04/10 02:13:53;;;;;;;9.80;3.17;;;;;;;;;;5386572;26;20945;-69
2024/04/10 02:16:22;;;;;;;12.60;3.33;;;;;;;;;;5382101;26;20004;-70
2024/04/10 02:18:48;;;;;;;9.90;2.85;;;;;;;;;;5409710;26;20025;-69
2024/04/10 02:21:16;;;;;;;11.73;2.63;;;;;;;;;;5414443;26;20004;-69
2024/04/10 02:23:43;;;;;;;15.68;3.08;;;;;;;;;;5407650;26;20759;-69
2024/04/10 02:26:10;;;;;;;16.92;3.58;;;;;;;;;;5396337;26;20009;-70
2024/04/10 02:28:36;;;;;;;6.70;2.65;;;;;;;;;;5403719;26;20367;-70
2024/04/10 02:31:03;;;;;;;11.18;3.30;;;;;;;;;;5399994;26;20018;-70
2024/04/10 02:33:37;;;;;;;9.55;2.75;;;;;;;;;;5380169;26;20000;-70
2024/04/10 02:36:05;;;;;;;13.05;3.55;;;;;;;;;;5414625;26;20004;-71
2024/04/10 02:38:33;;;;;;;10.15;3.13;;;;;;;;;;5391817;26;20004;-69
2024/04/10 02:40:59;;;;;;;12.60;3.30;;;;;;;;;;5390289;26;20492;-70
2024/04/10 02:43:26;;;;;;;14.68;3.15;;;;;;;;;;5411436;26;20022;-70
2024/04/10 02:45:56;;;;;;;7.95;2.72;;;;;;;;;;5386776;26;20014;-69
2024/04/10 02:48:23;;;;;;;15.07;3.67;;;;;;;;;;5408974;26;20014;-70
2024/04/10 02:50:50;;;;;;;10.30;2.90;;;;;;;;;;5401182;26;20011;-70
2024/04/10 02:53:17;;;;;;;13.15;3.75;;;;;;;;;;5395619;26;20015;-70
2024/04/10 02:55:48;;;;;;;12.52;3.53;;;;;;;;;;5390580;26;20000;-71
2024/04/10 02:58:15;;;;;;;12.98;3.55;;;;;;;;;;5411180;26;20705;-70
2024/04/10 03:00:45;;;;;;;8.95;3.47;;;;;;;;;;5405075;26;20012;-69
2024/04/10 03:03:12;;;;;;;11.88;3.17;;;;;;;;;;5383507;26;20082;-69
2024/04/10 03:05:39;;;;;;;12.38;3.22;;;;;;;;;;5399459;26;20015;-70
2024/04/10 03:08:06;;;;;;;13.63;2.90;;;;;;;;;;5368477;26;20016;-70
2024/04/10 03:10:33;;;;;;;12.70;3.13;;;;;;;;;;5374933;26;20008;-69
2024/04/10 03:12:59;;;;;;;12.63;3.65;;;;;;;;;;5391596;26;20000;-71
2024/04/10 03:15:26;;;;;;;11.98;3.13;;;;;;;;;;5389921;26;20007;-70
2024/04/10 03:17:53;;;;;;;13.82;2.97;;;;;;;;;;5394468;26;20003;-70
2024/04/10 03:20:21;;;;;;;9.90;3.55;;;;;;;;;;5390608;26;20459;-70
2024/04/10 03:22:47;;;;;;;12.77;2.97;;;;;;;;;;5376098;26;20523;-70
2024/04/10 03:25:14;;;;;;;12.35;3.22;;;;;;;;;;5365110;26;20008;-70
2024/04/10 03:27:41;;;;;;;11.93;2.80;;;;;;;;;;5383677;26;20024;-70
2024/04/10 03:30:08;;;;;;;10.38;3.35;;;;;;;;;;5386860;26;20007;-69
2024/04/10 03:32:34;;;;;;;14.57;3.63;;;;;;;;;;5406893;26;20018;-69
2024/04/10 03:35:01;;;;;;;12.93;3.45;;;;;;;;;;5364904;26;20041;-69
2024/04/10 03:37:31;;;;;;;12.73;3.22;;;;;;;;;;5377545;26;20019;-70
2024/04/10 03:39:57;;;;;;;10.70;2.92;;;;;;;;;;5393416;26;19995;-69
2024/04/10 03:42:24;;;;;;;13.02;3.88;;;;;;;;;;5401650;26;20627;-70
2024/04/10 03:44:50;;;;;;;12.68;2.90;;;;;;;;;;5370733;26;20709;-70
2024/04/10 03:47:17;;;;;;;11.40;3.30;;;;;;;;;;5376690;26;20339;-70
2024/04/10 03:49:44;;;;;;;11.75;2.95;;;;;;;;;;5365079;26;20012;-69
2024/04/10 03:52:10;;;;;;;11.20;2.83;;;;;;;;;;5361933;26;20103;-70
2024/04/10 03:54:37;;;;;;;16.95;3.25;;;;;;;;;;5402743;26;20611;-70
2024/04/10 03:57:03;;;;;;;10.35;2.90;;;;;;;;;;5395971;26;20004;-70
2024/04/10 03:59:30;;;;;;;13.82;3.42;;;;;;;;;;5381981;26;20463;-70
2024/04/10 04:01:56;;;;;;;10.02;3.17;;;;;;;;;;5383638;26;20036;-70
2024/04/10 04:04:23;;;;;;;11.43;3.35;;;;;;;;;;5377537;26;20012;-70
2024/04/10 04:06:50;;;;;;;13.60;3.10;;;;;;;;;;5365397;26;20015;-71
2024/04/10 04:09:17;;;;;;;8.65;2.80;;;;;;;;;;5379769;26;20341;-71
2024/04/10 04:11:43;;;;;;;11.77;3.00;;;;;;;;;;5389248;26;20077;-70
2024/04/10 04:14:10;;;;;;;14.88;3.63;;;;;;;;;;5405535;26;20077;-70
2024/04/10 04:16:37;;;;;;;11.30;3.13;;;;;;;;;;5387035;26;20452;-71
2024/04/10 04:19:03;;;;;;;11.80;3.03;;;;;;;;;;5387719;26;20710;-70
2024/04/10 04:21:31;;;;;;;9.43;3.38;;;;;;;;;;5361414;26;20448;-69
2024/04/10 04:23:58;;;;;;;12.77;2.97;;;;;;;;;;5373936;26;20085;-69
2024/04/10 04:26:25;;;;;;;10.77;3.80;;;;;;;;;;5393317;26;20077;-70
2024/04/10 04:28:52;;;;;;;14.48;3.20;;;;;;;;;;5376464;26;20008;-70
2024/04/10 04:31:19;;;;;;;12.20;3.03;;;;;;;;;;5371779;26;20005;-69
2024/04/10 04:33:46;;;;;;;13.10;3.58;;;;;;;;;;5369629;26;20233;-69
2024/04/10 04:36:13;;;;;;;11.25;3.20;;;;;;;;;;5380133;26;20004;-70
2024/04/10 04:38:39;;;;;;;13.50;3.53;;;;;;;;;;5374802;26;20008;-70
2024/04/10 04:41:06;;;;;;;15.05;3.30;;;;;;;;;;5396244;26;20015;-70
2024/04/10 04:43:32;;;;;;;11.70;2.75;;;;;;;;;;5386568;26;20004;-71
2024/04/10 04:46:00;;;;;;;10.60;3.22;;;;;;;;;;5361298;26;20018;-70
2024/04/10 04:48:27;;;;;;;12.80;3.42;;;;;;;;;;5381997;26;20015;-70
2024/04/10 04:50:54;;;;;;;12.80;2.80;;;;;;;;;;5371503;26;20011;-69
2024/04/10 04:53:21;;;;;;;11.05;3.10;;;;;;;;;;5386813;26;20015;-71
2024/04/10 04:55:48;;;;;;;13.55;3.35;;;;;;;;;;5383361;26;20554;-80
2024/04/10 04:58:14;;;;;;;10.90;3.10;;;;;;;;;;5397102;26;20483;-71
2024/04/10 05:00:41;;;;;;;17.85;3.10;;;;;;;;;;5399980;26;19999;-71
2024/04/10 05:04:54;;;;;;;12.40;2.60;;;;;;;;;;5387665;26;20018;-70
2024/04/10 05:05:58;;;;;;;14.07;3.20;;;;;;;;;;5375660;26;20457;-69
2024/04/10 05:08:24;;;;;;;12.38;2.80;;;;;;;;;;5385537;26;20109;-71
2024/04/10 05:10:51;;;;;;;13.25;2.90;;;;;;;;;;5402788;26;20678;-71
2024/04/10 05:13:18;;;;;;;8.82;2.20;;;;;;;;;;5380975;26;20022;-69
2024/04/10 05:15:45;;;;;;;12.73;2.45;;;;;;;;;;5354119;26;20330;-70
2024/04/10 05:18:11;;;;;;;14.48;3.20;;;;;;;;;;5393891;26;20007;-69
2024/04/10 05:20:38;;;;;;;12.73;2.67;;;;;;;;;;5396056;26;20025;-71
2024/04/10 05:23:04;;;;;;;11.10;2.70;;;;;;;;;;5373005;26;20452;-71
2024/04/10 05:25:31;;;;;;;11.60;2.63;;;;;;;;;;5395761;26;19999;-69
2024/04/10 05:27:57;;;;;;;11.25;2.30;;;;;;;;;;5362269;26;20354;-71
2024/04/10 05:30:24;;;;;;;11.73;2.80;;;;;;;;;;5389516;26;20010;-71
2024/04/10 05:32:50;;;;;;;9.50;2.70;;;;;;;;;;5367767;26;20012;-71
2024/04/10 05:35:17;;;;;;;9.30;3.03;;;;;;;;;;5373314;26;20015;-71
2024/04/10 05:37:44;;;;;;;15.05;2.58;;;;;;;;;;5395155;26;20007;-71
2024/04/10 05:40:14;;;;;;;14.00;3.20;;;;;;;;;;5387449;26;20379;-71
2024/04/10 05:42:41;;;;;;;11.98;2.97;;;;;;;;;;5396094;26;20012;-71
2024/04/10 05:45:09;;;;;;;9.63;2.58;;;;;;;;;;5356859;26;20004;-71
2024/04/10 05:47:36;;;;;;;11.60;3.10;;;;;;;;;;5377721;26;20374;-71
2024/04/10 05:50:03;;;;;;;13.82;2.92;;;;;;;;;;5379023;26;20008;-71
2024/04/10 05:52:30;;;;;;;16.27;3.03;;;;;;;;;;5396939;26;20000;-71
2024/04/10 05:54:56;;;;;;;14.52;3.28;;;;;;;;;;5388670;26;20531;-69
2024/04/10 05:57:24;;;;;;;11.65;3.25;;;;;;;;;;5382828;26;20347;-72
2024/04/10 05:59:51;;;;;;;12.20;2.87;;;;;;;;;;5379689;26;20018;-71
2024/04/10 06:02:18;;;;;;;16.27;2.90;;;;;;;;;;5381880;26;20047;-70
2024/04/10 06:04:44;;;;;;;11.95;2.88;;;;;;;;;;5392084;26;20004;-70
2024/04/10 06:07:11;;;;;;;14.20;3.38;;;;;;;;;;5380332;26;20004;-70
2024/04/10 06:09:37;;;;;;;9.77;2.42;;;;;;;;;;5370301;26;20003;-71
2024/04/10 06:12:04;;;;;;;13.85;3.25;;;;;;;;;;5397969;26;20172;-72
2024/04/10 06:14:31;;;;;;;13.18;3.78;;;;;;;;;;5368822;26;20554;-71
2024/04/10 06:16:57;;;;;;;14.20;2.90;;;;;;;;;;5375385;26;20348;-71
2024/04/10 06:19:24;;;;;;;13.73;3.10;;;;;;;;;;5391941;26;20000;-71
2024/04/10 06:21:51;;;;;;;16.85;2.80;;;;;;;;;;5401417;26;20015;-72
2024/04/10 06:24:19;;;;;;;12.02;2.20;;;;;;;;;;5369107;26;20012;-71
2024/04/10 06:26:45;;;;;;;9.50;2.90;;;;;;;;;;5374113;26;19996;-71
2024/04/10 06:29:12;;;;;;;14.02;3.42;;;;;;;;;;5385931;26;20008;-70
2024/04/10 06:31:39;;;;;;;9.80;2.60;;;;;;;;;;5381500;26;19995;-71
2024/04/10 06:34:06;;;;;;;20.83;3.13;;;;;;;;;;5386437;26;20051;-71
2024/04/10 06:36:33;;;;;;;11.85;2.60;;;;;;;;;;5379093;26;20027;-71
2024/04/10 06:39:00;;;;;;;14.40;2.63;;;;;;;;;;5361929;26;20011;-72
2024/04/10 06:41:26;;;;;;;12.00;2.53;;;;;;;;;;5379723;26;20011;-71
2024/04/10 06:43:52;;;;;;;13.88;2.67;;;;;;;;;;5381176;26;20022;-72
2024/04/10 06:46:19;;;;;;;15.82;3.15;;;;;;;;;;5371968;26;20054;-72
2024/04/10 06:48:46;;;;;;;6.78;2.30;;;;;;;;;;5388770;26;20865;-71
2024/04/10 06:51:12;;;;;;;10.25;3.00;;;;;;;;;;5374567;26;20008;-72
2024/04/10 06:53:39;;;;;;;15.75;3.38;;;;;;;;;;5391328;26;20003;-71
2024/04/10 06:56:11;;;;;;;10.02;2.70;;;;;;;;;;5365870;26;20011;-73
2024/04/10 06:58:38;;;;;;;13.18;2.92;;;;;;;;;;5405595;26;20755;-72
2024/04/10 07:01:05;;;;;;;11.95;2.50;;;;;;;;;;5389402;26;20003;-71
2024/04/10 07:03:36;;;;;;;13.68;3.30;;;;;;;;;;5401228;26;20053;-72
2024/04/10 07:06:10;;;;;;;8.68;2.47;;;;;;;;;;5399608;26;20048;-71
2024/04/10 07:08:38;;;;;;;13.77;3.72;;;;;;;;;;5359309;26;20012;-72
2024/04/10 07:11:19;;;;;;;10.88;2.80;;;;;;;;;;5385400;26;20082;-72
2024/04/10 07:13:50;;;;;;;13.43;2.95;;;;;;;;;;5365760;26;20554;-72
2024/04/10 07:16:18;;;;;;;13.43;2.58;;;;;;;;;;5421678;26;20001;-72
2024/04/10 07:18:44;;;;;;;14.50;2.65;;;;;;;;;;5408581;26;20047;-71
2024/04/10 07:21:12;;;;;;;14.63;3.22;;;;;;;;;;5400267;26;20014;-71
2024/04/10 07:23:40;;;;;;;12.45;2.70;;;;;;;;;;5405582;26;20465;-71
2024/04/10 07:26:08;;;;;;;13.18;2.60;;;;;;;;;;5395488;26;20000;-72
2024/04/10 07:28:35;;;;;;;11.10;2.90;;;;;;;;;;5371664;26;20005;-72
2024/04/10 07:31:02;;;;;;;9.02;2.67;;;;;;;;;;5394502;26;20574;-71
2024/04/10 07:33:28;;;;;;;14.93;2.60;;;;;;;;;;5380986;26;20645;-71
2024/04/10 07:35:55;;;;;;;14.15;2.70;;;;;;;;;;5371650;26;20044;-71
2024/04/10 07:38:21;;;;;;;12.63;2.17;;;;;;;;;;5378809;26;19999;-71
2024/04/10 07:40:52;;;;;;;11.25;2.50;;;;;;;;;;5386579;26;20325;-69
2024/04/10 07:43:18;;;;;;;11.35;2.65;;;;;;;;;;5391679;26;20334;-70
2024/04/10 07:45:45;;;;;;;11.38;2.22;;;;;;;;;;5396523;26;20004;-71
2024/04/10 07:48:11;;;;;;;9.63;2.60;;;;;;;;;;5383544;26;20819;-71
2024/04/10 07:50:39;;;;;;;13.60;2.78;;;;;;;;;;5392465;26;20019;-70
2024/04/10 07:53:06;;;;;;;14.20;2.75;;;;;;;;;;5395959;26;20058;-70
2024/04/10 07:55:33;;;;;;;13.40;3.25;;;;;;;;;;5390405;26;19999;-71
2024/04/10 07:57:59;;;;;;;9.90;2.72;;;;;;;;;;5389921;26;20691;-71
2024/04/10 08:00:27;;;;;;;16.67;2.67;;;;;;;;;;5394253;26;19995;-70
2024/04/10 08:02:54;;;;;;;14.27;3.40;;;;;;;;;;5381755;26;20004;-70
2024/04/10 08:05:21;;;;;;;15.23;2.65;;;;;;;;;;5379653;26;20012;-71
2024/04/10 08:07:48;;;;;;;14.45;2.38;;;;;;;;;;5362188;26;20004;-70
2024/04/10 08:10:14;;;;;;;12.95;2.55;;;;;;;;;;5387737;26;20010;-71
2024/04/10 08:12:41;;;;;;;11.98;3.17;;;;;;;;;;5385693;26;20081;-71
2024/04/10 08:15:08;;;;;;;13.07;2.30;;;;;;;;;;5383497;26;20031;-72
2024/04/10 08:17:40;;;;;;;9.47;2.40;;;;;;;;;;5377877;26;20011;-71
2024/04/10 08:20:07;;;;;;;14.75;3.03;;;;;;;;;;5377987;26;20000;-72
2024/04/10 08:22:34;;;;;;;13.13;2.30;;;;;;;;;;5395719;26;20023;-71
2024/04/10 08:25:00;;;;;;;10.98;2.20;;;;;;;;;;5369456;26;20074;-71
2024/04/10 08:27:27;;;;;;;11.63;2.47;;;;;;;;;;5366215;26;20018;-72
2024/04/10 08:29:53;;;;;;;16.40;2.72;;;;;;;;;;5390074;26;20458;-70
2024/04/10 08:32:20;;;;;;;12.02;2.35;;;;;;;;;;5385078;26;20004;-72
2024/04/10 08:34:47;;;;;;;11.18;2.83;;;;;;;;;;5391884;26;20902;-71
2024/04/10 08:37:13;;;;;;;15.23;3.00;;;;;;;;;;5382321;26;20078;-71
2024/04/10 08:39:40;;;;;;;9.32;2.08;;;;;;;;;;5381640;26;19997;-71
2024/04/10 08:42:06;;;;;;;10.20;2.38;;;;;;;;;;5362990;26;20008;-72
2024/04/10 08:44:33;;;;;;;14.45;2.47;;;;;;;;;;5379852;26;20417;-73
2024/04/10 08:47:00;;;;;;;10.73;2.30;;;;;;;;;;5405104;26;20374;-72
2024/04/10 08:49:29;;;;;;;19.02;2.70;;;;;;;;;;5393726;26;20011;-72
2024/04/10 08:51:55;;;;;;;13.30;3.30;;;;;;;;;;5386102;26;20082;-70
2024/04/10 08:54:23;;;;;;;18.95;3.00;;;;;;;;;;5383553;26;20088;-71
2024/04/10 08:56:49;;;;;;;11.33;2.70;;;;;;;;;;5380745;26;20004;-71
2024/04/10 08:59:16;;;;;;;10.70;2.50;;;;;;;;;;5385872;26;20536;-71
2024/04/10 09:01:43;;;;;;;14.63;2.10;;;;;;;;;;5379015;26;20344;-73
2024/04/10 09:04:13;;;;;;;10.10;2.40;;;;;;;;;;5394797;26;20058;-72
2024/04/10 09:06:40;;;;;;;9.63;2.22;;;;;;;;;;5364504;26;20456;-71
2024/04/10 09:09:07;;;;;;;13.23;2.65;;;;;;;;;;5384809;26;20077;-72
2024/04/10 09:11:35;;;;;;;13.82;2.15;;;;;;;;;;5385356;26;20019;-71
2024/04/10 09:14:06;;;;;;;12.70;2.95;;;;;;;;;;5388740;26;20018;-70
2024/04/10 09:16:35;;;;;;;9.93;2.78;;;;;;;;;;5402037;26;20015;-70
2024/04/10 09:19:08;;;;;;;8.13;2.35;;;;;;;;;;5366910;26;20050;-71
2024/04/10 09:21:35;;;;;;;10.57;2.78;;;;;;;;;;5386062;26;20065;-71
2024/04/10 09:24:03;;;;;;;13.00;2.60;;;;;;;;;;5373476;26;20007;-71
2024/04/10 09:26:30;;;;;;;;;;;;;;;;;;5381176;26;20044;-70
2024/04/10 09:29:09;;;;;;;10.93;2.40;;;;;;;;;;5370769;26;20003;-71
2024/04/10 09:31:35;;;;;;;10.88;2.42;;;;;;;;;;5366974;26;20074;-71
2024/04/10 09:34:04;;;;;;;8.52;2.10;;;;;;;;;;5401871;26;20117;-72
2024/04/10 09:36:35;;;;;;;7.22;2.10;;;;;;;;;;5381794;26;20010;-72
2024/04/10 09:39:05;;;;;;;10.32;2.47;;;;;;;;;;5386998;26;20015;-70
2024/04/10 09:41:34;;;;;;;8.55;2.55;;;;;;;;;;5358038;26;20074;-71
2024/04/10 09:44:02;;;;;;;10.18;2.30;;;;;;;;;;5382562;26;20337;-71
2024/04/10 09:46:29;;;;;;;;;;;;;;;;;;5405603;26;20003;-71
2024/04/10 09:48:56;;;;;;;6.18;2.30;;;;;;;;;;5383375;26;19926;-71
2024/04/10 09:51:23;;;;;;;9.93;2.13;;;;;;;;;;5380070;26;20348;-73
2024/04/10 09:53:50;;;;;;;9.30;2.55;;;;;;;;;;5386002;26;20007;-72
2024/04/10 09:56:18;;;;;;;8.35;2.42;;;;;;;;;;5376458;26;20015;-72
2024/04/10 09:58:45;;;;;;;7.30;1.92;;;;;;;;;;5405830;26;20003;-71
2024/04/10 10:01:11;;;;;;;8.88;2.50;;;;;;;;;;5386071;26;20008;-72
2024/04/10 10:03:38;;;;;;;14.80;2.20;;;;;;;;;;5389934;26;20003;-71
2024/04/10 10:06:06;;;;;;;7.65;1.92;;;;;;;;;;5367611;26;20003;-71
2024/04/10 10:08:34;;;;;;;7.32;2.05;;;;;;;;;;5387751;26;20394;-70
2024/04/10 10:11:00;;;;;;;11.20;1.77;;;;;;;;;;5394376;26;20014;-72
2024/04/10 10:13:27;;;;;;;7.20;1.33;;;;;;;;;;5402586;26;20003;-73
2024/04/10 10:16:02;;;;;;;7.22;2.03;;;;;;;;;;5396675;26;20016;-71
2024/04/10 10:18:29;;;;;;;7.22;1.90;;;;;;;;;;5390256;26;20012;-71
2024/04/10 10:21:04;;;;;;;9.70;1.83;;;;;;;;;;5372624;26;20019;-71
2024/04/10 10:23:34;;;;;;;10.32;2.83;;;;;;;;;;5369982;26;20008;-70
2024/04/10 10:26:01;;;;;;;7.38;1.55;;;;;;;;;;5376265;26;20005;-71
2024/04/10 10:28:31;;;;;;;11.27;1.75;;;;;;;;;;5386270;26;20891;-73
2024/04/10 10:31:07;;;;;;;7.28;1.50;;;;;;;;;;5368811;26;20001;-71
2024/04/10 10:33:34;;;;;;;8.13;1.30;;;;;;;;;;5397809;26;20012;-71
2024/04/10 10:36:01;;;;;;;9.07;2.15;;;;;;;;;;5375475;26;20000;-70
2024/04/10 10:38:27;;;;;;;10.35;1.50;;;;;;;;;;5370787;26;20004;-71
2024/04/10 10:40:54;;;;;;;7.03;1.67;;;;;;;;;;5380806;26;20333;-71
2024/04/10 10:43:20;;;;;;;7.20;1.60;;;;;;;;;;5403503;26;20343;-71
2024/04/10 10:45:50;;;;;;;6.20;1.20;;;;;;;;;;5386828;26;20004;-73
2024/04/10 10:48:16;;;;;;;6.53;1.15;;;;;;;;;;5373617;26;19997;-71
2024/04/10 10:50:43;;;;;;;6.75;1.25;;;;;;;;;;5382758;26;20830;-72
2024/04/10 10:53:12;;;;;;;9.20;1.77;;;;;;;;;;5396009;26;20121;-71
2024/04/10 10:55:54;;;;;;;7.43;1.60;;;;;;;;;;5383751;26;20015;-71
2024/04/10 10:58:22;;;;;;;6.00;1.70;;;;;;;;;;5401284;26;20004;-71
2024/04/10 11:00:48;;;;;;;7.18;1.52;;;;;;;;;;5364691;26;20012;-70
2024/04/10 11:03:19;;;;;;;3.83;1.15;;;;;;;;;;5395320;26;20039;-71
2024/04/10 11:06:05;;;;;;;7.45;1.40;;;;;;;;;;5390130;26;20014;-71
2024/04/10 11:08:32;;;;;;;8.10;1.35;;;;;;;;;;5380856;26;20081;-72
2024/04/10 11:10:58;;;;;;;9.32;1.60;;;;;;;;;;5377079;26;20015;-71
2024/04/10 11:13:25;;;;;;;6.85;1.30;;;;;;;;;;5393669;26;20004;-72
2024/04/10 11:15:54;;;;;;;8.00;1.42;;;;;;;;;;5372251;26;20075;-72
2024/04/10 11:18:21;;;;;;;8.90;1.60;;;;;;;;;;5355497;26;20001;-72
2024/04/10 11:20:49;;;;;;;4.68;1.05;;;;;;;;;;5389981;26;20082;-71
2024/04/10 11:23:16;;;;;;;6.95;1.40;;;;;;;;;;5399539;26;20003;-71
2024/04/10 11:25:43;;;;;;;6.82;1.17;;;;;;;;;;5374276;26;20014;-72
2024/04/10 11:28:10;;;;;;;9.13;1.80;;;;;;;;;;5375530;26;20009;-72
2024/04/10 11:30:37;;;;;;;5.10;1.20;;;;;;;;;;5400484;26;20004;-72
2024/04/10 11:33:06;;;;;;;5.88;1.02;;;;;;;;;;5399469;26;20008;-73
2024/04/10 11:35:37;;;;;;;3.50;1.10;;;;;;;;;;5370392;26;20609;-71
2024/04/10 11:38:04;;;;;;;4.25;0.95;;;;;;;;;;5404105;26;20003;-72
2024/04/10 11:40:31;;;;;;;5.55;1.10;;;;;;;;;;5392123;26;20018;-72
2024/04/10 11:42:57;;;;;;;5.03;1.30;;;;;;;;;;5386288;26;20000;-72
2024/04/10 11:45:24;;;;;;;6.20;1.27;;;;;;;;;;5394971;26;20006;-72
2024/04/10 11:47:52;;;;;;;8.88;1.40;;;;;;;;;;5383858;26;20004;-72
2024/04/10 11:50:21;;;;;;;9.23;1.73;;;;;;;;;;5383444;26;20000;-71
2024/04/10 11:52:47;;;;;;;7.35;1.30;;;;;;;;;;5397525;26;20003;-73
2024/04/10 11:55:14;;;;;;;6.78;1.10;;;;;;;;;;5400904;26;20026;-72
2024/04/10 11:57:41;;;;;;;8.70;1.20;;;;;;;;;;5390736;26;20030;-72
2024/04/10 12:00:09;;;;;;;6.82;1.00;;;;;;;;;;5377672;26;20176;-71
2024/04/10 12:02:36;;;;;;;;;;;;;;;;;;5393225;26;20015;-72
2024/04/10 12:05:06;;;;;;;4.95;1.00;;;;;;;;;;5373119;26;19925;-72
2024/04/10 12:07:36;;;;;;;6.03;1.10;;;;;;;;;;5370637;26;20078;-71
2024/04/10 12:10:06;;;;;;;3.80;1.02;;;;;;;;;;5385251;26;19996;-72
2024/04/10 12:12:32;;;;;;;4.47;1.17;;;;;;;;;;5382306;26;20340;-71
2024/04/10 12:15:00;;;;;;;6.85;1.05;;;;;;;;;;5363753;26;20008;-71
2024/04/10 12:17:29;;;;;;;6.43;1.33;;;;;;;;;;5382511;26;20000;-71
2024/04/10 12:19:56;;;;;;;5.20;1.40;;;;;;;;;;5397996;26;20472;-71
2024/04/10 12:22:22;;;;;;;9.32;1.63;;;;;;;;;;5386826;26;20000;-72
2024/04/10 12:24:49;;;;;;;8.90;1.40;;;;;;;;;;5381103;26;20004;-71
2024/04/10 12:27:15;;;;;;;5.72;1.15;;;;;;;;;;5385812;26;20470;-71
2024/04/10 12:29:43;;;;;;;7.10;1.13;;;;;;;;;;5380573;26;20001;-71
2024/04/10 12:32:10;;;;;;;;;;;;;;;;;;5393172;26;20004;-72
2024/04/10 12:34:37;;;;;;;7.95;1.25;;;;;;;;;;5361408;26;20255;-72
2024/04/10 12:39:49;;;;;;;6.38;1.15;;;;;;;;;;5386263;26;19999;-71
2024/04/10 12:42:15;;;;;;;5.75;1.10;;;;;;;;;;5381631;26;20008;-70
2024/04/10 12:44:42;;;;;;;4.90;1.23;;;;;;;;;;5397436;26;20411;-72
2024/04/10 12:47:09;;;;;;;6.22;1.27;;;;;;;;;;5375287;26;20004;-70
2024/04/10 12:49:38;;;;;;;7.65;1.13;;;;;;;;;;5382278;26;20000;-71
2024/04/10 12:52:05;;;;;;;7.20;1.35;;;;;;;;;;5386660;26;20011;-72
2024/04/10 12:54:31;;;;;;;4.03;1.10;;;;;;;;;;5392232;26;19996;-71
2024/04/10 12:56:58;;;;;;;2.97;1.10;;;;;;;;;;5376359;26;20755;-73
2024/04/10 12:59:24;;;;;;;5.93;1.13;;;;;;;;;;5392029;26;20086;-71
2024/04/10 13:01:53;;;;;;;3.67;1.10;;;;;;;;;;5397494;26;20542;-72
2024/04/10 13:04:20;;;;;;;5.43;1.13;;;;;;;;;;5364771;26;20071;-70
2024/04/10 13:06:47;;;;;;;6.38;1.38;;;;;;;;;;5391402;26;20520;-71
2024/04/10 13:09:13;;;;;;;4.45;1.20;;;;;;;;;;5369916;26;20489;-71
2024/04/10 13:11:40;;;;;;;6.28;1.23;;;;;;;;;;5378965;26;20015;-72
2024/04/10 13:14:06;;;;;;;5.90;1.40;;;;;;;;;;5370174;26;20000;-72
2024/04/10 13:16:33;;;;;;;4.03;0.90;;;;;;;;;;5364552;26;20008;-71
2024/04/10 13:19:00;;;;;;;5.70;1.08;;;;;;;;;;5370749;26;19996;-73
2024/04/10 13:21:27;;;;;;;4.20;1.10;;;;;;;;;;5377393;26;20031;-71
2024/04/10 13:23:53;;;;;;;5.32;1.45;;;;;;;;;;5376334;26;20000;-71
2024/04/10 13:26:20;;;;;;;7.40;1.85;;;;;;;;;;5393862;26;20017;-71
2024/04/10 13:28:48;;;;;;;6.43;1.17;;;;;;;;;;5398975;26;20004;-71
2024/04/10 13:31:19;;;;;;;4.60;1.02;;;;;;;;;;5370371;26;20023;-71
2024/04/10 13:33:46;;;;;;;6.45;1.33;;;;;;;;;;5379269;26;20012;-72
2024/04/10 13:36:14;;;;;;;7.10;1.33;;;;;;;;;;5363699;26;20015;-71
2024/04/10 13:38:48;;;;;;;4.45;1.40;;;;;;;;;;5363145;26;20309;-72
2024/04/10 13:41:15;;;;;;;5.35;1.30;;;;;;;;;;5403050;26;19996;-71
2024/04/10 13:43:43;;;;;;;6.25;1.15;;;;;;;;;;5380985;26;20516;-71
2024/04/10 13:46:11;;;;;;;9.35;1.25;;;;;;;;;;5364300;26;20070;-73
2024/04/10 13:48:41;;;;;;;5.25;1.35;;;;;;;;;;5376269;26;20029;-73
2024/04/10 13:51:09;;;;;;;5.25;1.20;;;;;;;;;;5366740;26;20003;-70
2024/04/10 13:53:37;;;;;;;8.18;1.20;;;;;;;;;;5391242;26;20012;-71
2024/04/10 13:56:04;;;;;;;4.23;1.33;;;;;;;;;;5392869;26;20071;-71
2024/04/10 13:58:34;;;;;;;8.68;1.20;;;;;;;;;;5404638;26;20237;-71
2024/04/10 14:01:13;;;;;;;2.63;1.13;;;;;;;;;;5380701;26;20011;-71
2024/04/10 14:03:41;;;;;;;7.78;1.33;;;;;;;;;;5361726;26;20545;-72
2024/04/10 14:06:08;;;;;;;6.05;1.10;;;;;;;;;;5361576;26;20074;-70
2024/04/10 14:08:36;;;;;;;4.22;1.23;;;;;;;;;;5360040;26;20045;-71
2024/04/10 14:11:05;;;;;;;5.00;1.10;;;;;;;;;;5401148;26;20008;-70
2024/04/10 14:13:32;;;;;;;5.97;1.65;;;;;;;;;;5376914;26;20007;-70
2024/04/10 14:15:59;;;;;;;3.15;0.90;;;;;;;;;;5369525;26;20001;-71
2024/04/10 14:18:26;;;;;;;4.43;1.15;;;;;;;;;;5360273;26;20860;-72
2024/04/10 14:21:10;;;;;;;6.60;1.38;;;;;;;;;;5381432;26;20008;-72
2024/04/10 14:23:38;;;;;;;7.80;1.40;;;;;;;;;;5367987;26;20000;-72
2024/04/10 14:26:09;;;;;;;6.60;1.43;;;;;;;;;;5359007;26;20480;-72
2024/04/10 14:28:37;;;;;;;5.97;1.25;;;;;;;;;;5369676;26;20004;-71
2024/04/10 14:31:07;;;;;;;8.90;1.20;;;;;;;;;;5381995;26;20016;-72
2024/04/10 14:33:35;;;;;;;7.47;1.40;;;;;;;;;;5364642;26;20012;-72
2024/04/10 14:36:02;;;;;;;4.70;1.10;;;;;;;;;;5360859;26;20037;-70
2024/04/10 14:38:29;;;;;;;7.72;1.33;;;;;;;;;;5367671;26;20000;-70
2024/04/10 14:40:56;;;;;;;6.00;1.30;;;;;;;;;;5385650;26;20360;-72
2024/04/10 14:43:23;;;;;;;4.43;1.17;;;;;;;;;;5385627;26;20000;-72